sensor_id;sensor_type;location;lat;lon;timestamp;pressure;altitude;pressure_sealevel;temperature;humidity
79067;BME280;68470;50.224;14.348;2023-11-19T00:00:18;99671.75;;;20.67;47.12
79067;BME280;68470;50.224;14.348;2023-11-19T00:03:04;99654.13;;;20.67;47.21
79067;BME280;68470;50.224;14.348;2023-11-19T00:05:31;99654.13;;;20.67;47.28
79067;BME280;68470;50.224;14.348;2023-11-19T00:07:56;99647.38;;;20.68;47.01
79067;BME280;68470;50.224;14.348;2023-11-19T00:10:22;99640.97;;;20.67;47.41
79067;BME280;68470;50.224;14.348;2023-11-19T00:12:49;99627.00;;;20.67;47.11
79067;BME280;68470;50.224;14.348;2023-11-19T00:15:16;99626.16;;;20.67;47.18
79067;BME280;68470;50.224;14.348;2023-11-19T00:17:44;99626.16;;;20.67;47.06
79067;BME280;68470;50.224;14.348;2023-11-19T00:20:12;99610.22;;;20.67;47.22
79067;BME280;68470;50.224;14.348;2023-11-19T00:22:37;99599.03;;;20.67;47.21
79067;BME280;68470;50.224;14.348;2023-11-19T00:25:03;99596.22;;;20.67;47.33
79067;BME280;68470;50.224;14.348;2023-11-19T00:27:29;99599.34;;;20.66;46.86
79067;BME280;68470;50.224;14.348;2023-11-19T00:29:56;99587.84;;;20.67;47.38
79067;BME280;68470;50.224;14.348;2023-11-19T00:32:22;99589.81;;;20.67;47.33
79067;BME280;68470;50.224;14.348;2023-11-19T00:34:48;99579.44;;;20.67;47.12
79067;BME280;68470;50.224;14.348;2023-11-19T00:37:14;99580.25;;;20.68;46.92
79067;BME280;68470;50.224;14.348;2023-11-19T00:39:43;99577.47;;;20.68;46.91
79067;BME280;68470;50.224;14.348;2023-11-19T00:42:11;99576.66;;;20.67;46.88
79067;BME280;68470;50.224;14.348;2023-11-19T00:44:37;99571.06;;;20.67;46.99
79067;BME280;68470;50.224;14.348;2023-11-19T00:47:03;99558.22;;;20.66;47.02
79067;BME280;68470;50.224;14.348;2023-11-19T00:49:31;99547.84;;;20.67;47.31
79067;BME280;68470;50.224;14.348;2023-11-19T00:51:58;99555.44;;;20.66;46.90
79067;BME280;68470;50.224;14.348;2023-11-19T00:54:24;99560.69;;;20.68;47.01
79067;BME280;68470;50.224;14.348;2023-11-19T00:56:54;99554.28;;;20.67;47.09
79067;BME280;68470;50.224;14.348;2023-11-19T00:59:20;99546.22;;;20.66;47.17
79067;BME280;68470;50.224;14.348;2023-11-19T01:01:46;99535.84;;;20.66;47.28
79067;BME280;68470;50.224;14.348;2023-11-19T01:04:16;99531.09;;;20.67;47.06
79067;BME280;68470;50.224;14.348;2023-11-19T01:06:42;99522.69;;;20.67;46.99
79067;BME280;68470;50.224;14.348;2023-11-19T01:09:08;99524.66;;;20.66;47.32
79067;BME280;68470;50.224;14.348;2023-11-19T01:11:34;99528.28;;;20.67;47.17
79067;BME280;68470;50.224;14.348;2023-11-19T01:14:00;99523.50;;;20.67;47.25
79067;BME280;68470;50.224;14.348;2023-11-19T01:16:26;99522.34;;;20.68;47.22
79067;BME280;68470;50.224;14.348;2023-11-19T01:18:52;99525.47;;;20.67;47.02
79067;BME280;68470;50.224;14.348;2023-11-19T01:21:18;99508.72;;;20.67;47.14
79067;BME280;68470;50.224;14.348;2023-11-19T01:23:44;99491.09;;;20.66;46.94
79067;BME280;68470;50.224;14.348;2023-11-19T01:26:10;99493.06;;;20.66;47.18
79067;BME280;68470;50.224;14.348;2023-11-19T01:28:36;99494.72;;;20.67;47.41
79067;BME280;68470;50.224;14.348;2023-11-19T01:31:05;99491.09;;;20.66;47.37
79067;BME280;68470;50.224;14.348;2023-11-19T01:33:30;99485.50;;;20.66;47.31
79067;BME280;68470;50.224;14.348;2023-11-19T01:35:56;99465.13;;;20.66;47.14
79067;BME280;68470;50.224;14.348;2023-11-19T01:38:24;99474.31;;;20.66;47.31
79067;BME280;68470;50.224;14.348;2023-11-19T01:40:50;99468.72;;;20.66;46.86
79067;BME280;68470;50.224;14.348;2023-11-19T01:43:38;99453.06;;;20.65;47.23
79067;BME280;68470;50.224;14.348;2023-11-19T01:46:06;99437.97;;;20.66;47.14
79067;BME280;68470;50.224;14.348;2023-11-19T01:48:35;99430.41;;;20.67;47.15
79067;BME280;68470;50.224;14.348;2023-11-19T01:51:02;99422.00;;;20.67;47.37
79067;BME280;68470;50.224;14.348;2023-11-19T01:53:30;99423.97;;;20.66;46.94
79067;BME280;68470;50.224;14.348;2023-11-19T01:55:56;99432.38;;;20.66;46.99
79067;BME280;68470;50.224;14.348;2023-11-19T01:58:22;99432.38;;;20.66;47.22
79067;BME280;68470;50.224;14.348;2023-11-19T02:00:48;99435.16;;;20.66;47.04
79067;BME280;68470;50.224;14.348;2023-11-19T02:03:14;99425.09;;;20.65;46.89
79067;BME280;68470;50.224;14.348;2023-11-19T02:05:40;99418.41;;;20.66;46.96
79067;BME280;68470;50.224;14.348;2023-11-19T02:08:06;99403.91;;;20.64;46.99
79067;BME280;68470;50.224;14.348;2023-11-19T02:10:32;99397.16;;;20.65;47.32
79067;BME280;68470;50.224;14.348;2023-11-19T02:12:58;99383.16;;;20.65;46.70
79067;BME280;68470;50.224;14.348;2023-11-19T02:15:24;99388.75;;;20.65;46.81
79067;BME280;68470;50.224;14.348;2023-11-19T02:17:52;99388.75;;;20.65;47.04
79067;BME280;68470;50.224;14.348;2023-11-19T02:20:18;99381.53;;;20.64;47.34
79067;BME280;68470;50.224;14.348;2023-11-19T02:22:46;99376.75;;;20.65;47.12
79067;BME280;68470;50.224;14.348;2023-11-19T02:25:27;99382.34;;;20.65;47.15
79067;BME280;68470;50.224;14.348;2023-11-19T02:28:00;99381.22;;;20.66;47.40
79067;BME280;68470;50.224;14.348;2023-11-19T02:30:26;99375.09;;;20.64;47.33
79067;BME280;68470;50.224;14.348;2023-11-19T02:32:53;99374.78;;;20.65;47.13
79067;BME280;68470;50.224;14.348;2023-11-19T02:35:19;99378.72;;;20.64;47.27
79067;BME280;68470;50.224;14.348;2023-11-19T02:37:47;99366.72;;;20.64;46.95
79067;BME280;68470;50.224;14.348;2023-11-19T02:40:13;99376.75;;;20.65;47.08
79067;BME280;68470;50.224;14.348;2023-11-19T02:42:39;99367.53;;;20.64;47.34
79067;BME280;68470;50.224;14.348;2023-11-19T02:45:05;99358.00;;;20.65;47.31
79067;BME280;68470;50.224;14.348;2023-11-19T02:47:33;99347.66;;;20.66;47.04
79067;BME280;68470;50.224;14.348;2023-11-19T02:49:59;99344.00;;;20.65;47.07
79067;BME280;68470;50.224;14.348;2023-11-19T02:52:25;99333.97;;;20.64;47.42
79067;BME280;68470;50.224;14.348;2023-11-19T02:54:51;99321.63;;;20.65;47.14
79067;BME280;68470;50.224;14.348;2023-11-19T02:57:16;99321.63;;;20.65;47.04
79067;BME280;68470;50.224;14.348;2023-11-19T02:59:44;99316.03;;;20.65;47.07
79067;BME280;68470;50.224;14.348;2023-11-19T03:02:10;99320.50;;;20.66;46.99
79067;BME280;68470;50.224;14.348;2023-11-19T03:04:39;99310.44;;;20.65;47.14
79067;BME280;68470;50.224;14.348;2023-11-19T03:07:06;99310.44;;;20.65;46.98
79067;BME280;68470;50.224;14.348;2023-11-19T03:09:32;99294.84;;;20.64;47.04
79067;BME280;68470;50.224;14.348;2023-11-19T03:11:59;99285.28;;;20.65;47.10
79067;BME280;68470;50.224;14.348;2023-11-19T03:14:24;99288.09;;;20.65;46.91
79067;BME280;68470;50.224;14.348;2023-11-19T03:16:50;99279.69;;;20.65;47.28
79067;BME280;68470;50.224;14.348;2023-11-19T03:19:16;99275.25;;;20.64;47.16
79067;BME280;68470;50.224;14.348;2023-11-19T03:21:42;99272.97;;;20.66;47.30
79067;BME280;68470;50.224;14.348;2023-11-19T03:24:07;99276.91;;;20.65;47.00
79067;BME280;68470;50.224;14.348;2023-11-19T03:26:34;99259.00;;;20.66;46.88
79067;BME280;68470;50.224;14.348;2023-11-19T03:28:59;99250.09;;;20.64;47.29
79067;BME280;68470;50.224;14.348;2023-11-19T03:31:26;99248.94;;;20.65;47.25
79067;BME280;68470;50.224;14.348;2023-11-19T03:33:51;99248.13;;;20.65;47.19
79067;BME280;68470;50.224;14.348;2023-11-19T03:36:17;99252.88;;;20.64;47.23
79067;BME280;68470;50.224;14.348;2023-11-19T03:38:42;99248.94;;;20.65;46.85
79067;BME280;68470;50.224;14.348;2023-11-19T03:41:15;99229.34;;;20.65;46.98
79067;BME280;68470;50.224;14.348;2023-11-19T03:43:42;99222.94;;;20.65;47.17
79067;BME280;68470;50.224;14.348;2023-11-19T03:46:21;99227.41;;;20.66;47.26
79067;BME280;68470;50.224;14.348;2023-11-19T03:48:48;99231.34;;;20.65;46.94
79067;BME280;68470;50.224;14.348;2023-11-19T03:51:14;99224.91;;;20.64;47.21
79067;BME280;68470;50.224;14.348;2023-11-19T03:53:44;99209.78;;;20.65;47.07
79067;BME280;68470;50.224;14.348;2023-11-19T03:56:10;99217.34;;;20.65;47.16
79067;BME280;68470;50.224;14.348;2023-11-19T03:58:36;99211.75;;;20.65;46.90
79067;BME280;68470;50.224;14.348;2023-11-19T04:01:11;99202.56;;;20.64;47.02
79067;BME280;68470;50.224;14.348;2023-11-19T04:03:38;99191.38;;;20.64;46.90
79067;BME280;68470;50.224;14.348;2023-11-19T04:06:04;99188.25;;;20.66;47.17
79067;BME280;68470;50.224;14.348;2023-11-19T04:08:30;99185.78;;;20.64;47.28
79067;BME280;68470;50.224;14.348;2023-11-19T04:10:55;99183.78;;;20.65;47.01
79067;BME280;68470;50.224;14.348;2023-11-19T04:13:21;99171.78;;;20.64;47.13
79067;BME280;68470;50.224;14.348;2023-11-19T04:15:49;99165.03;;;20.65;47.11
79067;BME280;68470;50.224;14.348;2023-11-19T04:18:15;99161.44;;;20.65;47.17
79067;BME280;68470;50.224;14.348;2023-11-19T04:20:40;99159.44;;;20.65;46.92
79067;BME280;68470;50.224;14.348;2023-11-19T04:23:08;99153.84;;;20.65;47.01
79067;BME280;68470;50.224;14.348;2023-11-19T04:25:35;99153.84;;;20.65;46.94
79067;BME280;68470;50.224;14.348;2023-11-19T04:28:00;99143.53;;;20.66;47.01
79067;BME280;68470;50.224;14.348;2023-11-19T04:30:26;99132.66;;;20.64;47.39
79067;BME280;68470;50.224;14.348;2023-11-19T04:32:52;99130.66;;;20.65;47.03
79067;BME280;68470;50.224;14.348;2023-11-19T04:35:17;99121.47;;;20.64;47.17
79067;BME280;68470;50.224;14.348;2023-11-19T04:37:44;99119.47;;;20.65;47.15
79067;BME280;68470;50.224;14.348;2023-11-19T04:40:10;99118.34;;;20.66;47.03
79067;BME280;68470;50.224;14.348;2023-11-19T04:42:38;99113.88;;;20.65;46.90
79067;BME280;68470;50.224;14.348;2023-11-19T04:45:07;99101.88;;;20.64;47.29
79067;BME280;68470;50.224;14.348;2023-11-19T04:47:33;99102.69;;;20.65;47.20
79067;BME280;68470;50.224;14.348;2023-11-19T04:50:00;99103.53;;;20.65;47.14
79067;BME280;68470;50.224;14.348;2023-11-19T04:52:25;99081.16;;;20.65;47.25
79067;BME280;68470;50.224;14.348;2023-11-19T04:54:51;99076.72;;;20.64;47.12
79067;BME280;68470;50.224;14.348;2023-11-19T04:57:17;99076.72;;;20.64;47.31
79067;BME280;68470;50.224;14.348;2023-11-19T04:59:42;99069.97;;;20.65;47.03
79067;BME280;68470;50.224;14.348;2023-11-19T05:02:09;99052.38;;;20.65;47.25
79067;BME280;68470;50.224;14.348;2023-11-19T05:04:34;99051.56;;;20.64;46.99
79067;BME280;68470;50.224;14.348;2023-11-19T05:07:00;99045.97;;;20.64;47.04
79067;BME280;68470;50.224;14.348;2023-11-19T05:09:26;99045.97;;;20.64;47.27
79067;BME280;68470;50.224;14.348;2023-11-19T05:11:52;99045.97;;;20.64;46.82
79067;BME280;68470;50.224;14.348;2023-11-19T05:14:18;99052.72;;;20.63;47.09
79067;BME280;68470;50.224;14.348;2023-11-19T05:16:47;99064.72;;;20.64;47.22
79067;BME280;68470;50.224;14.348;2023-11-19T05:19:13;99062.75;;;20.64;47.20
79067;BME280;68470;50.224;14.348;2023-11-19T05:21:42;99059.94;;;20.64;47.02
79067;BME280;68470;50.224;14.348;2023-11-19T05:24:09;99054.34;;;20.64;47.26
79067;BME280;68470;50.224;14.348;2023-11-19T05:26:34;99039.91;;;20.62;47.28
79067;BME280;68470;50.224;14.348;2023-11-19T05:29:00;99031.16;;;20.64;46.83
79067;BME280;68470;50.224;14.348;2023-11-19T05:31:25;99028.38;;;20.64;47.21
79067;BME280;68470;50.224;14.348;2023-11-19T05:33:51;99033.97;;;20.64;47.11
79067;BME280;68470;50.224;14.348;2023-11-19T05:36:17;99034.78;;;20.64;46.95
79067;BME280;68470;50.224;14.348;2023-11-19T05:38:42;99029.19;;;20.64;47.21
79067;BME280;68470;50.224;14.348;2023-11-19T05:41:09;99012.41;;;20.64;47.21
79067;BME280;68470;50.224;14.348;2023-11-19T05:43:35;99009.94;;;20.63;47.06
79067;BME280;68470;50.224;14.348;2023-11-19T05:46:01;99010.44;;;20.65;47.46
79067;BME280;68470;50.224;14.348;2023-11-19T05:48:27;99006.00;;;20.64;47.11
79067;BME280;68470;50.224;14.348;2023-11-19T05:50:53;99012.41;;;20.64;47.29
79067;BME280;68470;50.224;14.348;2023-11-19T05:53:19;99007.63;;;20.65;46.99
79067;BME280;68470;50.224;14.348;2023-11-19T05:55:44;98995.63;;;20.64;47.42
79067;BME280;68470;50.224;14.348;2023-11-19T05:58:15;99007.63;;;20.65;47.03
79067;BME280;68470;50.224;14.348;2023-11-19T06:00:41;99007.63;;;20.65;47.56
79067;BME280;68470;50.224;14.348;2023-11-19T06:03:07;99016.03;;;20.65;46.97
79067;BME280;68470;50.224;14.348;2023-11-19T06:05:33;99016.84;;;20.65;47.34
79067;BME280;68470;50.224;14.348;2023-11-19T06:07:58;99011.25;;;20.65;47.21
79067;BME280;68470;50.224;14.348;2023-11-19T06:10:24;99008.44;;;20.65;47.00
79067;BME280;68470;50.224;14.348;2023-11-19T06:12:59;98997.25;;;20.65;47.25
79067;BME280;68470;50.224;14.348;2023-11-19T06:15:30;99002.84;;;20.65;47.16
79067;BME280;68470;50.224;14.348;2023-11-19T06:17:56;99017.69;;;20.66;46.96
79067;BME280;68470;50.224;14.348;2023-11-19T06:20:23;99002.03;;;20.65;47.17
79067;BME280;68470;50.224;14.348;2023-11-19T06:22:50;98974.88;;;20.65;46.99
79067;BME280;68470;50.224;14.348;2023-11-19T06:25:16;98962.56;;;20.66;47.25
79067;BME280;68470;50.224;14.348;2023-11-19T06:27:42;98977.69;;;20.65;47.51
79067;BME280;68470;50.224;14.348;2023-11-19T06:30:08;98998.09;;;20.66;47.03
79067;BME280;68470;50.224;14.348;2023-11-19T06:32:34;99012.09;;;20.66;46.97
79067;BME280;68470;50.224;14.348;2023-11-19T06:34:59;99023.28;;;20.66;47.14
79067;BME280;68470;50.224;14.348;2023-11-19T06:37:25;99010.13;;;20.66;47.42
79067;BME280;68470;50.224;14.348;2023-11-19T06:39:52;98993.34;;;20.66;46.90
79067;BME280;68470;50.224;14.348;2023-11-19T06:42:18;98993.34;;;20.66;47.39
79067;BME280;68470;50.224;14.348;2023-11-19T06:44:43;98996.13;;;20.66;47.17
79067;BME280;68470;50.224;14.348;2023-11-19T06:47:09;98995.31;;;20.66;47.07
79067;BME280;68470;50.224;14.348;2023-11-19T06:49:35;98995.31;;;20.66;46.97
79067;BME280;68470;50.224;14.348;2023-11-19T06:52:00;98988.88;;;20.65;47.55
79067;BME280;68470;50.224;14.348;2023-11-19T06:54:26;98974.88;;;20.65;47.10
79067;BME280;68470;50.224;14.348;2023-11-19T06:56:52;98982.16;;;20.66;47.33
79067;BME280;68470;50.224;14.348;2023-11-19T06:59:17;98992.53;;;20.66;47.26
79067;BME280;68470;50.224;14.348;2023-11-19T07:01:43;98990.53;;;20.66;47.10
79067;BME280;68470;50.224;14.348;2023-11-19T07:04:11;98982.16;;;20.66;47.00
79067;BME280;68470;50.224;14.348;2023-11-19T07:06:38;98977.38;;;20.67;47.06
79067;BME280;68470;50.224;14.348;2023-11-19T07:09:06;98987.75;;;20.66;47.40
79067;BME280;68470;50.224;14.348;2023-11-19T07:11:41;98990.53;;;20.66;47.39
79067;BME280;68470;50.224;14.348;2023-11-19T07:14:07;98993.34;;;20.66;47.04
79067;BME280;68470;50.224;14.348;2023-11-19T07:16:34;98990.53;;;20.66;47.37
79067;BME280;68470;50.224;14.348;2023-11-19T07:19:01;98987.75;;;20.66;47.28
79067;BME280;68470;50.224;14.348;2023-11-19T07:21:27;98989.38;;;20.67;47.08
79067;BME280;68470;50.224;14.348;2023-11-19T07:23:55;98982.16;;;20.66;47.35
79067;BME280;68470;50.224;14.348;2023-11-19T07:26:22;98967.81;;;20.68;46.90
79067;BME280;68470;50.224;14.348;2023-11-19T07:28:48;98961.41;;;20.67;47.16
79067;BME280;68470;50.224;14.348;2023-11-19T07:31:14;98971.44;;;20.68;47.23
79067;BME280;68470;50.224;14.348;2023-11-19T07:33:40;98971.78;;;20.67;47.08
79067;BME280;68470;50.224;14.348;2023-11-19T07:36:12;98968.97;;;20.67;47.01
79067;BME280;68470;50.224;14.348;2023-11-19T07:38:37;98971.78;;;20.67;47.33
79067;BME280;68470;50.224;14.348;2023-11-19T07:41:05;98974.22;;;20.68;47.46
79067;BME280;68470;50.224;14.348;2023-11-19T07:43:31;98977.03;;;20.68;47.43
79067;BME280;68470;50.224;14.348;2023-11-19T07:45:56;98983.78;;;20.67;47.20
79067;BME280;68470;50.224;14.348;2023-11-19T07:48:25;98978.19;;;20.67;47.09
79067;BME280;68470;50.224;14.348;2023-11-19T07:50:52;98972.25;;;20.69;47.12
79067;BME280;68470;50.224;14.348;2023-11-19T07:53:19;98965.84;;;20.68;47.16
79067;BME280;68470;50.224;14.348;2023-11-19T07:55:45;98968.63;;;20.68;47.13
79067;BME280;68470;50.224;14.348;2023-11-19T07:58:11;98964.22;;;20.67;47.28
79067;BME280;68470;50.224;14.348;2023-11-19T08:00:38;98958.13;;;20.65;47.27
79067;BME280;68470;50.224;14.348;2023-11-19T08:03:04;98969.66;;;20.64;46.95
79067;BME280;68470;50.224;14.348;2023-11-19T08:05:31;98962.75;;;20.61;46.60
79067;BME280;68470;50.224;14.348;2023-11-19T08:07:57;98958.22;;;20.57;46.87
79067;BME280;68470;50.224;14.348;2023-11-19T08:10:24;98951.31;;;20.54;46.86
79067;BME280;68470;50.224;14.348;2023-11-19T08:12:49;98938.38;;;20.50;47.00
79067;BME280;68470;50.224;14.348;2023-11-19T08:15:15;98941.03;;;20.46;46.59
79067;BME280;68470;50.224;14.348;2023-11-19T08:17:41;98947.28;;;20.43;46.88
79067;BME280;68470;50.224;14.348;2023-11-19T08:20:09;98942.88;;;20.42;46.60
79067;BME280;68470;50.224;14.348;2023-11-19T08:22:38;98939.09;;;20.38;46.65
79067;BME280;68470;50.224;14.348;2023-11-19T08:25:07;98943.88;;;20.37;46.65
79067;BME280;68470;50.224;14.348;2023-11-19T08:27:33;98943.41;;;20.35;46.98
79067;BME280;68470;50.224;14.348;2023-11-19T08:29:59;98932.56;;;20.34;47.02
79067;BME280;68470;50.224;14.348;2023-11-19T08:32:25;98933.72;;;20.33;47.00
79067;BME280;68470;50.224;14.348;2023-11-19T08:34:52;98933.72;;;20.33;46.82
79067;BME280;68470;50.224;14.348;2023-11-19T08:37:17;98932.06;;;20.32;46.73
79067;BME280;68470;50.224;14.348;2023-11-19T08:39:49;98936.34;;;20.29;46.83
79067;BME280;68470;50.224;14.348;2023-11-19T08:42:16;98937.50;;;20.28;46.92
79067;BME280;68470;50.224;14.348;2023-11-19T08:44:43;98936.69;;;20.28;46.53
79067;BME280;68470;50.224;14.348;2023-11-19T08:47:12;98929.47;;;20.27;46.82
79067;BME280;68470;50.224;14.348;2023-11-19T08:49:39;98926.69;;;20.27;46.75
79067;BME280;68470;50.224;14.348;2023-11-19T08:52:05;98927.84;;;20.26;46.93
79067;BME280;68470;50.224;14.348;2023-11-19T08:54:33;98929.81;;;20.25;47.05
79067;BME280;68470;50.224;14.348;2023-11-19T08:56:59;98934.59;;;20.25;46.93
79067;BME280;68470;50.224;14.348;2023-11-19T08:59:25;98930.28;;;20.27;46.91
79067;BME280;68470;50.224;14.348;2023-11-19T09:01:51;98942.09;;;20.33;46.95
79067;BME280;68470;50.224;14.348;2023-11-19T09:04:16;98940.25;;;20.37;46.91
79067;BME280;68470;50.224;14.348;2023-11-19T09:06:42;98930.72;;;20.38;47.04
79067;BME280;68470;50.224;14.348;2023-11-19T09:09:08;98928.38;;;20.40;46.67
79067;BME280;68470;50.224;14.348;2023-11-19T09:11:35;98934.78;;;20.40;46.74
79067;BME280;68470;50.224;14.348;2023-11-19T09:14:00;98930.88;;;20.41;46.64
79067;BME280;68470;50.224;14.348;2023-11-19T09:16:26;98920.81;;;20.40;46.57
79067;BME280;68470;50.224;14.348;2023-11-19T09:18:52;98917.72;;;20.42;46.89
79067;BME280;68470;50.224;14.348;2023-11-19T09:21:17;98910.97;;;20.43;46.48
79067;BME280;68470;50.224;14.348;2023-11-19T09:23:43;98903.38;;;20.43;46.84
79067;BME280;68470;50.224;14.348;2023-11-19T09:26:09;98903.03;;;20.45;46.60
79067;BME280;68470;50.224;14.348;2023-11-19T09:28:37;98897.44;;;20.45;46.49
79067;BME280;68470;50.224;14.348;2023-11-19T09:31:13;98890.69;;;20.46;46.55
79067;BME280;68470;50.224;14.348;2023-11-19T09:33:39;98909.09;;;20.47;46.83
79067;BME280;68470;50.224;14.348;2023-11-19T09:36:05;98899.91;;;20.47;46.76
79067;BME280;68470;50.224;14.348;2023-11-19T09:38:31;98894.78;;;20.49;46.42
79067;BME280;68470;50.224;14.348;2023-11-19T09:40:58;98898.44;;;20.49;46.66
79067;BME280;68470;50.224;14.348;2023-11-19T09:43:27;98911.72;;;20.52;46.73
79067;BME280;68470;50.224;14.348;2023-11-19T09:45:54;98901.00;;;20.54;46.70
79067;BME280;68470;50.224;14.348;2023-11-19T09:48:21;98892.28;;;20.56;47.00
79067;BME280;68470;50.224;14.348;2023-11-19T09:50:47;98888.31;;;20.57;47.07
79067;BME280;68470;50.224;14.348;2023-11-19T09:53:14;98881.22;;;20.59;46.76
79067;BME280;68470;50.224;14.348;2023-11-19T09:55:40;98885.28;;;20.62;46.96
79067;BME280;68470;50.224;14.348;2023-11-19T09:58:07;98887.06;;;20.66;46.82
79067;BME280;68470;50.224;14.348;2023-11-19T10:00:33;98873.56;;;20.68;46.88
79067;BME280;68470;50.224;14.348;2023-11-19T10:02:59;98882.88;;;20.72;47.03
79067;BME280;68470;50.224;14.348;2023-11-19T10:05:26;98876.94;;;20.74;46.87
79067;BME280;68470;50.224;14.348;2023-11-19T10:07:52;98881.03;;;20.77;47.14
79067;BME280;68470;50.224;14.348;2023-11-19T10:10:18;98874.28;;;20.78;47.09
79067;BME280;68470;50.224;14.348;2023-11-19T10:12:45;98861.91;;;20.79;46.84
79067;BME280;68470;50.224;14.348;2023-11-19T10:15:22;98859.25;;;20.82;46.79
79067;BME280;68470;50.224;14.348;2023-11-19T10:17:50;98849.22;;;20.81;46.74
79067;BME280;68470;50.224;14.348;2023-11-19T10:20:15;98860.75;;;20.80;46.83
79067;BME280;68470;50.224;14.348;2023-11-19T10:22:41;98867.06;;;20.77;46.43
79067;BME280;68470;50.224;14.348;2023-11-19T10:25:24;98854.94;;;20.72;46.69
79067;BME280;68470;50.224;14.348;2023-11-19T10:27:54;98850.03;;;20.69;46.69
79067;BME280;68470;50.224;14.348;2023-11-19T10:30:27;98843.47;;;20.65;46.80
79067;BME280;68470;50.224;14.348;2023-11-19T10:33:08;98826.94;;;20.60;46.52
79067;BME280;68470;50.224;14.348;2023-11-19T10:35:35;98832.06;;;20.58;46.69
79067;BME280;68470;50.224;14.348;2023-11-19T10:38:13;98827.97;;;20.56;47.08
79067;BME280;68470;50.224;14.348;2023-11-19T10:40:39;98833.09;;;20.54;46.83
79067;BME280;68470;50.224;14.348;2023-11-19T10:43:06;98844.63;;;20.52;46.69
79067;BME280;68470;50.224;14.348;2023-11-19T10:45:33;98844.16;;;20.50;47.18
79067;BME280;68470;50.224;14.348;2023-11-19T10:47:59;98836.09;;;20.49;47.17
79067;BME280;68470;50.224;14.348;2023-11-19T10:50:26;98832.81;;;20.47;47.13
79067;BME280;68470;50.224;14.348;2023-11-19T10:52:56;98822.81;;;20.46;46.82
79067;BME280;68470;50.224;14.348;2023-11-19T10:55:27;98836.31;;;20.43;46.76
79067;BME280;68470;50.224;14.348;2023-11-19T10:57:58;98829.91;;;20.43;47.25
79067;BME280;68470;50.224;14.348;2023-11-19T11:00:24;98835.03;;;20.41;46.80
79067;BME280;68470;50.224;14.348;2023-11-19T11:02:55;98845.69;;;20.39;46.91
79067;BME280;68470;50.224;14.348;2023-11-19T11:05:22;98833.34;;;20.40;47.10
79067;BME280;68470;50.224;14.348;2023-11-19T11:07:48;98822.19;;;20.40;47.20
79067;BME280;68470;50.224;14.348;2023-11-19T11:10:16;98832.88;;;20.38;47.10
79067;BME280;68470;50.224;14.348;2023-11-19T11:12:43;98822.06;;;20.36;46.88
79067;BME280;68470;50.224;14.348;2023-11-19T11:15:11;98816.47;;;20.36;47.21
79067;BME280;68470;50.224;14.348;2023-11-19T11:17:41;98806.56;;;20.39;47.00
79067;BME280;68470;50.224;14.348;2023-11-19T11:20:09;98813.59;;;20.45;47.18
79067;BME280;68470;50.224;14.348;2023-11-19T11:22:52;98811.41;;;20.51;47.33
79067;BME280;68470;50.224;14.348;2023-11-19T11:28:46;98801.75;;;20.60;47.32
79067;BME280;68470;50.224;14.348;2023-11-19T11:31:29;98814.22;;;20.63;46.91
79067;BME280;68470;50.224;14.348;2023-11-19T11:39:22;98816.00;;;20.67;46.85
79067;BME280;68470;50.224;14.348;2023-11-19T11:41:47;98818.47;;;20.69;47.06
79067;BME280;68470;50.224;14.348;2023-11-19T11:45:04;98816.13;;;20.71;46.98
79067;BME280;68470;50.224;14.348;2023-11-19T11:50:09;98800.63;;;20.73;46.93
79067;BME280;68470;50.224;14.348;2023-11-19T11:58:20;98804.34;;;20.78;47.05
79067;BME280;68470;50.224;14.348;2023-11-19T12:00:47;98798.41;;;20.79;47.11
79067;BME280;68470;50.224;14.348;2023-11-19T12:03:14;98803.19;;;20.79;47.37
79067;BME280;68470;50.224;14.348;2023-11-19T12:05:47;98794.44;;;20.80;47.07
79067;BME280;68470;50.224;14.348;2023-11-19T12:08:14;98803.66;;;20.81;46.98
79067;BME280;68470;50.224;14.348;2023-11-19T12:13:10;98800.50;;;20.82;47.10
79067;BME280;68470;50.224;14.348;2023-11-19T12:18:23;98790.50;;;20.81;47.23
79067;BME280;68470;50.224;14.348;2023-11-19T12:20:49;98791.00;;;20.83;47.22
79067;BME280;68470;50.224;14.348;2023-11-19T12:23:14;98787.38;;;20.83;46.99
79067;BME280;68470;50.224;14.348;2023-11-19T12:25:41;98786.53;;;20.82;46.96
79067;BME280;68470;50.224;14.348;2023-11-19T12:28:12;98778.97;;;20.83;47.00
79067;BME280;68470;50.224;14.348;2023-11-19T12:30:39;98766.13;;;20.82;47.22
79067;BME280;68470;50.224;14.348;2023-11-19T12:33:08;98765.00;;;20.83;47.30
79067;BME280;68470;50.224;14.348;2023-11-19T12:35:39;98765.00;;;20.83;47.03
79067;BME280;68470;50.224;14.348;2023-11-19T12:38:05;98742.13;;;20.81;46.86
79067;BME280;68470;50.224;14.348;2023-11-19T12:40:31;98743.28;;;20.80;46.64
79067;BME280;68470;50.224;14.348;2023-11-19T12:42:57;98736.06;;;20.79;46.99
79067;BME280;68470;50.224;14.348;2023-11-19T12:45:24;98740.03;;;20.78;46.65
79067;BME280;68470;50.224;14.348;2023-11-19T12:48:04;98733.97;;;20.76;46.78
79067;BME280;68470;50.224;14.348;2023-11-19T12:50:50;98731.53;;;20.74;46.70
79067;BME280;68470;50.224;14.348;2023-11-19T12:53:16;98739.09;;;20.73;46.90
79067;BME280;68470;50.224;14.348;2023-11-19T12:55:42;98735.03;;;20.71;47.00
79067;BME280;68470;50.224;14.348;2023-11-19T12:58:08;98735.38;;;20.69;46.68
79067;BME280;68470;50.224;14.348;2023-11-19T13:00:33;98722.56;;;20.68;46.80
79067;BME280;68470;50.224;14.348;2023-11-19T13:02:59;98730.50;;;20.66;46.77
79067;BME280;68470;50.224;14.348;2023-11-19T13:05:29;98742.81;;;20.65;46.70
79067;BME280;68470;50.224;14.348;2023-11-19T13:08:07;98743.50;;;20.62;46.66
79067;BME280;68470;50.224;14.348;2023-11-19T13:13:15;98731.06;;;20.60;46.80
79067;BME280;68470;50.224;14.348;2023-11-19T13:15:41;98723.00;;;20.58;47.18